Bonifay, FL (32425)

7:57 AM CDT on July 28, 2014 (GMT -0500)
APRSWXNET Bonifay FL US (ME2276) Elev 144 ft | 30.80 °N, 85.70 °W | Change Station
Active Advisory: Heat Advisory

Current weather conditions updated 43 minutes ago

Scattered Clouds
Scattered Clouds
78 °F
Feels Like 81 °F
N
0
Wind Variable Wind from NE
Gusts 4.0 mph

Today is forecast to be Cooler than yesterday. Showers and thunderstorms late.

Today
High -- | Low -- °F
--% Chance of Precip.
Yesterday
High -- | Low -- °F
Precip. -- in
5:57 AM 7:40 PM
New Moon, 2% visible
Pressure 29.90 in
Visibility 6.0 miles
Clouds Scattered Clouds 7000 ft
Heat Index 81 °F
Dew Point 77 °F
Humidity 96%
Rainfall 0.00 in
Snow Depth Not available.
UV 1 out of 12
Pollen 4.30 out of 12
Air Quality Not available.
Flu Activity Not available.
METAR K1J0 281158Z AUTO 23003KT 6SM BR SCT070 26/25 A3002 RMK AO2 SLP124 60000 T02560250 10261 20244 51007

More Conditions Fewer Conditions

Pressure 29.90 in
Visibility 6.0 miles
Clouds Scattered Clouds 7000 ft
Heat Index 81 °F
Dew Point 77 °F
Humidity 96%
Rainfall 0.00 in
Snow Depth Not available.
UV 1 out of 12
Pollen 4.30 out of 12
Air Quality Not available.
Flu Activity Not available.
METAR K1J0 281158Z AUTO 23003KT 6SM BR SCT070 26/25 A3002 RMK AO2 SLP124 60000 T02560250 10261 20244 51007

More Conditions Fewer Conditions

10-Day Weather Forecast

Almanac

Astronomy

Jul. 28, 2014 Rise Set
Actual Time 5:57 AM CDT 7:40 PM CDT
Civil Twilight 5:31 AM CDT 8:06 PM CDT
Nautical Twilight 4:59 AM CDT 8:38 PM CDT
Astronomical Twilight 4:25 AM CDT 9:11 PM CDT
Moon 7:28 AM CDT 8:33 PM CDT
Length of Visible Light 14h 35m
Length of Day
13h 42m
Tomorrow will be 1m 19s shorter.
New Moon, 2% of the Moon is Illuminated
Today
New Moon
Aug 3
First Quarter
Aug 10
Full
Aug 17
Last Quarter
Aug 25
New

Today's Extremes

State Highs State Lows

Community

WunderPhotos

Upload Photos

1,738,317 photos uploaded!

Nearby

Snow Depth

Station Depth Elevation
No new snow has been reported.

Earthquake Activity

City Distance Mag. Time & Date
No recent earthquake activity has been reported nearby.
Minimum magnitude displayed is 2.5.

Coastal Water Temperatures

Place Temperature
No Stations Reporting

Nearby Weather Stations

Station Location Temp. Heat Index Dew Point Humidity Wind Precip. Elev Updated Type
APRSWXNET Bonifay FL , 78 °F 81 °F 77 °F 96% NE  at  0 mph 0.00 in / hr 144 ft 8:14 AM EDT MADIS
Bob's Backyard Weather, Bonifay, FL 79.7 °F 85 °F 77 °F 93% ENE  at  1.0 mph 0.00 in / hr 131 ft 8:33 AM EDT Normal
County Rd. 85, Hartford, AL 79.9 °F 85 °F 75 °F 86% SW  at  4.0 mph 0.00 in / hr 290 ft 7:57 AM CDT Rapid Fire

Show More Stations Show Fewer Stations